Time;durP1;ratioP1;P1;durP2;ratioP2;P2;SDS_P1;SDS_P2;PMS_P1;PMS_P2;Temp;Humidity;BMP_temperature;BMP_pressure;BME280_temperature;BME280_humidity;BME280_pressure;Samples;Min_cycle;Max_cycle;Signal;HPM_P1;HPM_P2
2023/04/30 00:02:38;;;;;;;0.80;0.80;;;;;;;;;;6236728;28;20295;-74
2023/04/30 00:05:45;;;;;;;0.90;0.90;;;;;;;;;;6237388;28;20320;-74
2023/04/30 00:08:50;;;;;;;0.83;0.83;;;;;;;;;;6236768;28;20301;-74
2023/04/30 00:11:55;;;;;;;0.90;0.90;;;;;;;;;;6237410;28;20304;-75
2023/04/30 00:15:01;;;;;;;0.80;0.80;;;;;;;;;;6236931;28;20596;-74
2023/04/30 00:18:06;;;;;;;0.90;0.90;;;;;;;;;;6237121;28;20291;-75
2023/04/30 00:21:13;;;;;;;0.80;0.80;;;;;;;;;;6237157;28;20296;-74
2023/04/30 00:24:18;;;;;;;1.50;0.80;;;;;;;;;;6237454;28;20299;-74
2023/04/30 00:27:23;;;;;;;0.80;0.80;;;;;;;;;;6236790;28;20479;-75
2023/04/30 00:30:29;;;;;;;0.90;0.90;;;;;;;;;;6239663;28;20394;-74
2023/04/30 00:33:34;;;;;;;0.90;0.90;;;;;;;;;;6239651;28;20295;-74
2023/04/30 00:36:43;;;;;;;0.93;0.93;;;;;;;;;;6237152;28;20300;-74
2023/04/30 00:39:48;;;;;;;0.90;0.90;;;;;;;;;;6235606;28;20295;-74
2023/04/30 00:42:54;;;;;;;0.90;0.90;;;;;;;;;;6235119;28;20319;-74
2023/04/30 00:46:00;;;;;;;0.70;0.70;;;;;;;;;;6250792;28;20468;-74
2023/04/30 00:49:05;;;;;;;0.90;0.90;;;;;;;;;;6251293;28;20294;-75
2023/04/30 00:52:14;;;;;;;0.80;0.80;;;;;;;;;;6236638;28;20299;-74
2023/04/30 00:55:20;;;;;;;1.00;1.00;;;;;;;;;;6235146;28;20299;-74
2023/04/30 00:58:25;;;;;;;0.80;0.80;;;;;;;;;;6235919;28;20311;-74
2023/04/30 01:01:31;;;;;;;1.00;1.00;;;;;;;;;;6252085;28;20308;-74
2023/04/30 01:04:36;;;;;;;0.90;0.90;;;;;;;;;;6235204;28;20300;-75
2023/04/30 01:07:45;;;;;;;0.80;0.80;;;;;;;;;;6236057;28;20295;-74
2023/04/30 01:10:54;;;;;;;0.90;0.90;;;;;;;;;;6252004;28;20304;-74
2023/04/30 01:14:08;;;;;;;0.80;0.80;;;;;;;;;;6251177;28;20316;-75
2023/04/30 01:17:21;;;;;;;0.80;0.80;;;;;;;;;;6234262;28;20286;-75
2023/04/30 01:20:28;;;;;;;0.90;0.90;;;;;;;;;;6235334;28;20536;-74
2023/04/30 01:23:57;;;;;;;0.90;0.90;;;;;;;;;;6250554;28;20306;-75
2023/04/30 01:27:26;;;;;;;0.93;0.93;;;;;;;;;;6235771;28;20336;-74
2023/04/30 01:30:34;;;;;;;0.90;0.90;;;;;;;;;;6235299;28;20295;-74
2023/04/30 01:33:39;;;;;;;0.90;0.90;;;;;;;;;;6235846;28;20378;-74
2023/04/30 01:36:54;;;;;;;1.00;1.00;;;;;;;;;;6235301;28;20304;-75
2023/04/30 01:40:09;;;;;;;0.90;0.90;;;;;;;;;;6233960;28;20300;-74
2023/04/30 01:43:20;;;;;;;0.90;0.90;;;;;;;;;;6235167;28;20303;-74
2023/04/30 01:46:29;;;;;;;0.90;0.90;;;;;;;;;;6236147;28;20295;-74
2023/04/30 01:49:43;;;;;;;0.90;0.90;;;;;;;;;;6250312;28;20300;-74
2023/04/30 01:52:50;;;;;;;0.80;0.80;;;;;;;;;;6234572;28;20298;-75
2023/04/30 01:55:59;;;;;;;0.80;0.80;;;;;;;;;;6235165;28;20299;-74
2023/04/30 01:59:06;;;;;;;1.13;1.00;;;;;;;;;;6249240;28;20297;-75
2023/04/30 02:02:14;;;;;;;0.90;0.90;;;;;;;;;;6241417;28;20300;-74
2023/04/30 02:05:20;;;;;;;0.90;0.90;;;;;;;;;;6210265;28;20300;-74
2023/04/30 02:08:26;;;;;;;0.90;0.90;;;;;;;;;;6225932;28;20303;-74
2023/04/30 02:11:31;;;;;;;0.83;0.83;;;;;;;;;;6210817;28;20292;-74
2023/04/30 02:14:36;;;;;;;1.00;1.00;;;;;;;;;;6225242;28;20293;-74
2023/04/30 02:17:42;;;;;;;0.83;0.83;;;;;;;;;;6225429;28;20363;-74
2023/04/30 02:20:48;;;;;;;0.90;0.90;;;;;;;;;;6193277;28;20308;-74
2023/04/30 02:23:54;;;;;;;1.00;1.00;;;;;;;;;;6224958;28;20308;-74
2023/04/30 02:27:00;;;;;;;0.90;0.90;;;;;;;;;;6211139;28;20296;-75
2023/04/30 02:30:06;;;;;;;1.00;1.00;;;;;;;;;;6210446;28;20309;-75
2023/04/30 02:33:13;;;;;;;1.00;1.00;;;;;;;;;;6210096;28;20324;-74
2023/04/30 02:36:18;;;;;;;0.83;0.83;;;;;;;;;;6211074;28;20304;-74
2023/04/30 02:39:24;;;;;;;0.77;0.77;;;;;;;;;;6225284;28;20485;-74
2023/04/30 02:42:29;;;;;;;0.93;0.93;;;;;;;;;;6225405;28;20474;-73
2023/04/30 02:45:34;;;;;;;0.90;0.90;;;;;;;;;;6210727;28;20307;-74
2023/04/30 02:48:41;;;;;;;0.97;0.97;;;;;;;;;;6209138;28;20300;-74
2023/04/30 02:51:46;;;;;;;0.90;0.90;;;;;;;;;;6225575;28;20300;-74
2023/04/30 02:54:51;;;;;;;0.80;0.80;;;;;;;;;;6209745;28;20608;-74
2023/04/30 02:57:56;;;;;;;0.80;0.80;;;;;;;;;;6210310;28;20295;-74
2023/04/30 03:01:02;;;;;;;0.80;0.80;;;;;;;;;;6210424;28;20295;-74
2023/04/30 03:04:08;;;;;;;0.80;0.80;;;;;;;;;;6206187;28;20298;-75
2023/04/30 03:07:13;;;;;;;0.80;0.80;;;;;;;;;;6209871;28;20295;-74
2023/04/30 03:10:19;;;;;;;0.93;0.93;;;;;;;;;;6211839;28;20480;-74
2023/04/30 03:13:25;;;;;;;0.80;0.80;;;;;;;;;;6221421;28;20303;-74
2023/04/30 03:16:30;;;;;;;0.90;0.90;;;;;;;;;;6190440;28;20305;-74
2023/04/30 03:19:37;;;;;;;0.90;0.90;;;;;;;;;;6192581;28;20304;-75
2023/04/30 03:22:42;;;;;;;0.90;0.90;;;;;;;;;;6214523;28;20295;-74
2023/04/30 03:25:48;;;;;;;0.90;0.90;;;;;;;;;;6228693;28;20307;-75
2023/04/30 03:28:54;;;;;;;0.90;0.90;;;;;;;;;;6228553;28;20298;-75
2023/04/30 03:32:00;;;;;;;1.13;0.90;;;;;;;;;;6214690;28;20326;-74
2023/04/30 03:35:08;;;;;;;0.97;0.97;;;;;;;;;;6228008;28;20304;-75
2023/04/30 03:38:14;;;;;;;0.90;0.90;;;;;;;;;;6213539;28;20268;-75
2023/04/30 03:41:20;;;;;;;0.90;0.90;;;;;;;;;;6214508;28;20296;-74
2023/04/30 03:44:25;;;;;;;0.80;0.80;;;;;;;;;;6213251;28;20299;-74
2023/04/30 03:47:30;;;;;;;0.97;0.97;;;;;;;;;;6213971;28;20602;-73
2023/04/30 03:50:37;;;;;;;1.17;1.10;;;;;;;;;;6212216;28;20581;-75
2023/04/30 03:53:42;;;;;;;1.00;1.00;;;;;;;;;;6228324;28;20299;-75
2023/04/30 03:56:48;;;;;;;1.07;0.97;;;;;;;;;;6228217;28;20326;-74
2023/04/30 03:59:53;;;;;;;0.90;0.90;;;;;;;;;;6211999;28;20359;-73
2023/04/30 04:02:59;;;;;;;0.90;0.90;;;;;;;;;;6228972;28;20323;-74
2023/04/30 04:06:07;;;;;;;1.00;1.00;;;;;;;;;;6225447;28;20306;-74
2023/04/30 04:09:13;;;;;;;1.90;1.00;;;;;;;;;;6236395;28;20294;-74
2023/04/30 04:12:19;;;;;;;1.10;1.10;;;;;;;;;;6236672;28;20302;-74
2023/04/30 04:15:24;;;;;;;1.00;1.00;;;;;;;;;;6237224;28;20293;-74
2023/04/30 04:18:30;;;;;;;1.00;1.00;;;;;;;;;;6220261;28;20289;-74
2023/04/30 04:21:37;;;;;;;1.00;1.00;;;;;;;;;;6211702;28;20302;-74
2023/04/30 04:24:50;;;;;;;1.63;1.00;;;;;;;;;;6211281;28;20356;-74
2023/04/30 04:27:57;;;;;;;0.80;0.80;;;;;;;;;;6211985;28;20294;-74
2023/04/30 04:31:03;;;;;;;0.97;0.97;;;;;;;;;;6211948;28;20411;-75
2023/04/30 04:34:08;;;;;;;1.00;1.00;;;;;;;;;;6227874;28;20405;-73
2023/04/30 04:37:16;;;;;;;1.10;1.10;;;;;;;;;;6237261;28;20599;-74
2023/04/30 04:40:21;;;;;;;1.03;1.03;;;;;;;;;;6232602;28;20308;-75
2023/04/30 04:43:26;;;;;;;0.90;0.90;;;;;;;;;;6212726;28;20292;-74
2023/04/30 04:46:32;;;;;;;1.10;1.10;;;;;;;;;;6247701;28;20486;-74
2023/04/30 04:49:38;;;;;;;1.33;0.90;;;;;;;;;;6227201;28;20296;-74
2023/04/30 04:52:45;;;;;;;1.03;1.03;;;;;;;;;;6231260;28;20302;-75
2023/04/30 04:55:52;;;;;;;1.07;1.07;;;;;;;;;;6236204;28;20472;-74
2023/04/30 04:58:58;;;;;;;0.90;0.90;;;;;;;;;;6219052;28;20302;-74
2023/04/30 05:02:03;;;;;;;0.93;0.90;;;;;;;;;;6209543;28;20306;-74
2023/04/30 05:05:09;;;;;;;1.00;1.00;;;;;;;;;;6240123;28;20452;-74
2023/04/30 05:08:16;;;;;;;1.10;1.10;;;;;;;;;;6218785;28;20270;-74
2023/04/30 05:11:23;;;;;;;1.00;1.00;;;;;;;;;;6250928;28;20289;-75
2023/04/30 05:14:29;;;;;;;1.10;1.10;;;;;;;;;;6218243;28;20298;-73
2023/04/30 05:17:34;;;;;;;1.00;1.00;;;;;;;;;;6236150;28;20285;-74
2023/04/30 05:20:39;;;;;;;1.03;1.03;;;;;;;;;;6235882;28;20296;-73
2023/04/30 05:23:46;;;;;;;1.00;1.00;;;;;;;;;;6235708;28;20297;-74
2023/04/30 05:26:51;;;;;;;0.90;0.90;;;;;;;;;;6235783;28;20307;-75
2023/04/30 05:29:56;;;;;;;1.23;0.90;;;;;;;;;;6235572;28;20367;-74
2023/04/30 05:33:01;;;;;;;1.00;1.00;;;;;;;;;;6235568;28;20294;-73
2023/04/30 05:36:07;;;;;;;1.17;1.17;;;;;;;;;;6235526;28;20311;-74
2023/04/30 05:39:13;;;;;;;1.00;1.00;;;;;;;;;;6235773;28;20447;-74
2023/04/30 05:42:19;;;;;;;1.10;1.10;;;;;;;;;;6235715;28;20299;-73
2023/04/30 05:45:24;;;;;;;1.60;1.10;;;;;;;;;;6237849;28;20297;-74
2023/04/30 05:48:29;;;;;;;1.80;1.17;;;;;;;;;;6235802;28;20303;-73
2023/04/30 05:51:34;;;;;;;1.90;1.10;;;;;;;;;;6235421;28;20551;-74
2023/04/30 05:54:41;;;;;;;1.30;1.30;;;;;;;;;;6235047;28;20587;-73
2023/04/30 05:57:46;;;;;;;1.07;1.07;;;;;;;;;;6235937;28;20611;-74
2023/04/30 06:00:51;;;;;;;1.10;1.10;;;;;;;;;;6234160;28;20304;-73
2023/04/30 06:03:57;;;;;;;1.10;1.10;;;;;;;;;;6235091;28;20287;-74
2023/04/30 06:07:02;;;;;;;1.00;1.00;;;;;;;;;;6235340;28;20294;-74
2023/04/30 06:10:11;;;;;;;1.10;1.10;;;;;;;;;;6235576;28;20319;-74
2023/04/30 06:13:16;;;;;;;1.17;1.10;;;;;;;;;;6235426;28;20295;-73
2023/04/30 06:16:21;;;;;;;3.10;1.20;;;;;;;;;;6234970;28;20302;-74
2023/04/30 06:19:27;;;;;;;1.23;1.20;;;;;;;;;;6235217;28;20296;-75
2023/04/30 06:22:32;;;;;;;1.17;1.00;;;;;;;;;;6235775;28;20291;-74
2023/04/30 06:25:39;;;;;;;2.63;0.93;;;;;;;;;;6234817;28;20303;-74
2023/04/30 06:28:45;;;;;;;1.17;1.17;;;;;;;;;;6234605;28;20300;-74
2023/04/30 06:31:50;;;;;;;1.53;1.03;;;;;;;;;;6235697;28;20294;-75
2023/04/30 06:34:56;;;;;;;1.03;0.90;;;;;;;;;;6234053;28;20295;-74
2023/04/30 06:38:01;;;;;;;1.13;1.03;;;;;;;;;;6235925;28;20288;-74
2023/04/30 06:41:07;;;;;;;1.03;1.03;;;;;;;;;;6213012;28;20319;-74
2023/04/30 06:44:13;;;;;;;1.00;1.00;;;;;;;;;;6226989;28;20300;-74
2023/04/30 06:47:18;;;;;;;1.10;1.10;;;;;;;;;;6230685;28;20592;-74
2023/04/30 06:50:23;;;;;;;1.27;0.90;;;;;;;;;;6214666;28;20319;-74
2023/04/30 06:53:29;;;;;;;1.00;1.00;;;;;;;;;;6214972;28;20292;-74
2023/04/30 06:56:35;;;;;;;1.00;1.00;;;;;;;;;;6218586;28;20292;-73
2023/04/30 06:59:40;;;;;;;1.30;1.30;;;;;;;;;;6221915;28;20476;-74
2023/04/30 07:02:46;;;;;;;1.00;1.00;;;;;;;;;;6239360;28;20488;-73
2023/04/30 07:05:52;;;;;;;0.90;0.90;;;;;;;;;;6238930;28;20287;-73
2023/04/30 07:08:58;;;;;;;0.90;0.90;;;;;;;;;;6238175;28;20487;-74
2023/04/30 07:12:04;;;;;;;1.10;1.10;;;;;;;;;;6239574;28;20328;-74
2023/04/30 07:15:10;;;;;;;1.30;1.20;;;;;;;;;;6238861;28;20296;-74
2023/04/30 07:18:16;;;;;;;1.00;1.00;;;;;;;;;;6254783;28;20452;-74
2023/04/30 07:21:21;;;;;;;1.30;1.00;;;;;;;;;;6239065;28;20461;-75
2023/04/30 07:24:26;;;;;;;1.00;1.00;;;;;;;;;;6238739;28;20463;-73
2023/04/30 07:27:33;;;;;;;1.00;1.00;;;;;;;;;;6239040;28;20340;-73
2023/04/30 07:30:38;;;;;;;1.10;1.10;;;;;;;;;;6238384;28;20474;-73
2023/04/30 07:33:44;;;;;;;1.10;1.10;;;;;;;;;;6238453;28;20296;-73
2023/04/30 07:36:49;;;;;;;2.67;1.40;;;;;;;;;;6238796;28;20292;-73
2023/04/30 07:39:54;;;;;;;1.10;1.10;;;;;;;;;;6238214;28;20295;-74
2023/04/30 07:43:01;;;;;;;1.13;1.13;;;;;;;;;;6238842;28;20399;-74
2023/04/30 07:46:06;;;;;;;1.27;1.17;;;;;;;;;;6220666;28;20299;-74
2023/04/30 07:49:12;;;;;;;1.00;1.00;;;;;;;;;;6213576;28;20478;-73
2023/04/30 07:52:17;;;;;;;1.10;1.10;;;;;;;;;;6217179;28;20300;-74
2023/04/30 07:55:22;;;;;;;1.00;1.00;;;;;;;;;;6236013;28;20304;-73
2023/04/30 07:58:29;;;;;;;1.20;1.20;;;;;;;;;;6237817;28;20292;-74
2023/04/30 08:01:34;;;;;;;1.17;1.17;;;;;;;;;;6237123;28;20304;-74
2023/04/30 08:04:40;;;;;;;1.08;1.08;;;;;;;;;;6237559;28;20296;-75
2023/04/30 08:07:45;;;;;;;3.17;1.07;;;;;;;;;;6238100;28;20300;-74
2023/04/30 08:10:50;;;;;;;3.03;1.10;;;;;;;;;;6219975;28;20296;-74
2023/04/30 08:13:56;;;;;;;1.40;1.30;;;;;;;;;;6237393;28;20296;-74
2023/04/30 08:17:02;;;;;;;1.00;1.00;;;;;;;;;;6237987;28;20300;-74
2023/04/30 08:20:08;;;;;;;0.93;0.93;;;;;;;;;;6236343;28;20296;-75
2023/04/30 08:23:15;;;;;;;3.13;1.00;;;;;;;;;;6237599;28;20448;-75
2023/04/30 08:26:21;;;;;;;1.00;1.00;;;;;;;;;;6237600;28;20296;-75
2023/04/30 08:29:27;;;;;;;1.40;1.03;;;;;;;;;;6236151;28;20296;-74
2023/04/30 08:32:35;;;;;;;1.10;1.10;;;;;;;;;;6237772;28;20296;-74
2023/04/30 08:35:40;;;;;;;1.00;1.00;;;;;;;;;;6251858;28;20308;-75
2023/04/30 08:38:46;;;;;;;2.35;1.20;;;;;;;;;;6236515;28;20419;-74
2023/04/30 08:41:55;;;;;;;1.03;1.03;;;;;;;;;;6237495;28;20300;-74
2023/04/30 08:45:02;;;;;;;1.10;1.10;;;;;;;;;;6236796;28;20288;-75
2023/04/30 08:48:11;;;;;;;3.88;1.15;;;;;;;;;;6237451;28;20304;-74
2023/04/30 08:51:16;;;;;;;2.00;0.93;;;;;;;;;;6236694;28;20292;-74
2023/04/30 08:54:21;;;;;;;1.10;1.10;;;;;;;;;;6235594;28;20300;-75
2023/04/30 08:57:26;;;;;;;1.20;1.20;;;;;;;;;;6219272;28;20307;-74
2023/04/30 09:00:34;;;;;;;1.83;1.33;;;;;;;;;;6236407;28;20303;-75
2023/04/30 09:03:39;;;;;;;1.10;1.10;;;;;;;;;;6236082;28;20300;-75
2023/04/30 09:06:45;;;;;;;1.92;1.10;;;;;;;;;;6235876;28;20481;-74
2023/04/30 09:09:53;;;;;;;1.05;1.05;;;;;;;;;;6236606;28;20296;-74
2023/04/30 09:13:00;;;;;;;1.30;1.20;;;;;;;;;;6236319;28;20304;-74
2023/04/30 09:16:07;;;;;;;2.05;1.30;;;;;;;;;;6236570;28;20301;-74
2023/04/30 09:19:24;;;;;;;1.15;1.00;;;;;;;;;;6236261;28;20601;-74
2023/04/30 09:22:29;;;;;;;1.02;1.02;;;;;;;;;;6236515;28;20292;-74
2023/04/30 09:25:40;;;;;;;2.50;1.20;;;;;;;;;;6235107;28;20296;-75
2023/04/30 09:28:56;;;;;;;1.52;1.38;;;;;;;;;;6236158;28;20600;-74
2023/04/30 09:32:10;;;;;;;1.20;1.20;;;;;;;;;;6236365;28;20297;-76
2023/04/30 09:35:29;;;;;;;1.20;1.20;;;;;;;;;;6234468;28;20593;-74
2023/04/30 09:38:35;;;;;;;1.27;1.27;;;;;;;;;;6236045;28;20296;-75
2023/04/30 09:41:41;;;;;;;1.55;1.45;;;;;;;;;;6235772;28;20296;-75
2023/04/30 09:44:46;;;;;;;1.10;1.10;;;;;;;;;;6235556;28;20315;-75
2023/04/30 09:47:54;;;;;;;1.60;1.60;;;;;;;;;;6235424;28;20296;-74
2023/04/30 09:51:16;;;;;;;1.10;1.10;;;;;;;;;;6235054;28;20292;-75
2023/04/30 09:54:23;;;;;;;1.40;1.40;;;;;;;;;;6235467;28;20584;-75
2023/04/30 09:57:35;;;;;;;5.70;1.23;;;;;;;;;;6235856;28;20604;-74
2023/04/30 10:00:40;;;;;;;4.07;1.25;;;;;;;;;;6234967;28;20297;-76
2023/04/30 10:03:48;;;;;;;1.20;1.20;;;;;;;;;;6235587;28;20308;-74
2023/04/30 10:06:55;;;;;;;1.88;1.27;;;;;;;;;;6235926;28;20581;-75
2023/04/30 10:10:07;;;;;;;1.42;1.10;;;;;;;;;;6235297;28;20300;-75
2023/04/30 10:13:17;;;;;;;1.08;1.08;;;;;;;;;;6235866;28;20288;-74
2023/04/30 10:16:30;;;;;;;1.38;1.27;;;;;;;;;;6234990;28;20299;-74
2023/04/30 10:19:40;;;;;;;2.17;1.17;;;;;;;;;;6239184;28;20304;-74
2023/04/30 10:22:46;;;;;;;3.90;1.27;;;;;;;;;;6241053;28;20292;-74
2023/04/30 10:25:52;;;;;;;1.65;1.00;;;;;;;;;;6238789;28;20304;-74
2023/04/30 10:28:59;;;;;;;1.05;1.05;;;;;;;;;;6239880;28;20612;-74
2023/04/30 10:32:05;;;;;;;1.10;1.10;;;;;;;;;;6213692;28;20277;-76
2023/04/30 10:35:16;;;;;;;2.08;1.27;;;;;;;;;;6221892;28;20596;-74
2023/04/30 10:38:23;;;;;;;5.35;1.33;;;;;;;;;;6239547;28;20272;-75
2023/04/30 10:41:29;;;;;;;1.85;1.63;;;;;;;;;;6239280;28;20320;-74
2023/04/30 10:44:34;;;;;;;1.95;1.30;;;;;;;;;;6239031;28;20315;-74
2023/04/30 10:47:44;;;;;;;8.00;1.23;;;;;;;;;;6239596;28;20301;-75
2023/04/30 10:50:51;;;;;;;1.20;0.85;;;;;;;;;;6237527;28;20301;-74
2023/04/30 10:53:57;;;;;;;1.02;1.02;;;;;;;;;;6238867;28;20296;-75
2023/04/30 10:57:13;;;;;;;5.80;1.02;;;;;;;;;;6239079;28;20308;-75
2023/04/30 11:00:26;;;;;;;0.98;0.98;;;;;;;;;;6239043;28;20305;-74
2023/04/30 11:03:32;;;;;;;2.30;1.25;;;;;;;;;;6239012;28;20300;-75
2023/04/30 11:07:03;;;;;;;1.73;1.10;;;;;;;;;;6225074;28;20294;-74
2023/04/30 11:10:09;;;;;;;1.42;1.30;;;;;;;;;;6213996;28;20629;-75
2023/04/30 11:13:16;;;;;;;2.92;1.10;;;;;;;;;;6214222;28;20289;-74
2023/04/30 11:16:28;;;;;;;1.20;1.20;;;;;;;;;;6214309;28;20293;-74
2023/04/30 11:19:34;;;;;;;3.90;1.35;;;;;;;;;;6213817;28;20309;-74
2023/04/30 11:22:41;;;;;;;11.07;1.30;;;;;;;;;;6214363;28;20605;-74
2023/04/30 11:25:47;;;;;;;3.25;1.10;;;;;;;;;;6214114;28;20302;-74
2023/04/30 11:28:56;;;;;;;2.40;1.17;;;;;;;;;;6213060;28;20316;-75
2023/04/30 11:32:01;;;;;;;7.45;1.25;;;;;;;;;;6214097;28;20289;-74
2023/04/30 11:35:07;;;;;;;2.00;1.13;;;;;;;;;;6225406;28;20553;-75
2023/04/30 11:38:15;;;;;;;1.45;1.00;;;;;;;;;;6238974;28;20288;-74
2023/04/30 11:41:22;;;;;;;3.70;1.17;;;;;;;;;;6238294;28;20296;-74
2023/04/30 11:44:27;;;;;;;2.95;1.20;;;;;;;;;;6238332;28;20292;-73
2023/04/30 11:47:43;;;;;;;1.00;1.00;;;;;;;;;;6238686;28;20300;-74
2023/04/30 11:50:48;;;;;;;0.70;0.70;;;;;;;;;;6236881;28;20301;-74
2023/04/30 11:53:54;;;;;;;1.08;1.08;;;;;;;;;;6233811;28;20584;-73
2023/04/30 11:57:02;;;;;;;1.90;1.25;;;;;;;;;;6229739;28;20320;-74
2023/04/30 12:00:15;;;;;;;1.95;1.25;;;;;;;;;;6213314;28;20624;-74
2023/04/30 12:03:21;;;;;;;2.05;1.30;;;;;;;;;;6213477;28;20320;-74
2023/04/30 12:06:27;;;;;;;1.58;1.50;;;;;;;;;;6213700;28;20293;-74
2023/04/30 12:09:49;;;;;;;0.98;0.98;;;;;;;;;;6212423;28;20301;-74
2023/04/30 12:12:54;;;;;;;1.10;1.10;;;;;;;;;;6212848;28;20306;-75
2023/04/30 12:16:01;;;;;;;1.05;1.05;;;;;;;;;;6213509;28;20588;-73
2023/04/30 12:19:08;;;;;;;4.70;1.35;;;;;;;;;;6212707;28;20289;-75
2023/04/30 12:22:13;;;;;;;0.90;0.90;;;;;;;;;;6212443;28;20297;-74
2023/04/30 12:25:21;;;;;;;1.10;1.10;;;;;;;;;;6211519;28;20368;-74
2023/04/30 12:28:27;;;;;;;1.13;1.13;;;;;;;;;;6212978;28;20332;-75
2023/04/30 12:31:33;;;;;;;0.80;0.80;;;;;;;;;;6236961;28;20296;-74
2023/04/30 12:34:39;;;;;;;0.90;0.90;;;;;;;;;;6219523;28;20296;-75
2023/04/30 12:37:44;;;;;;;1.95;0.93;;;;;;;;;;6236081;28;20296;-74
2023/04/30 12:40:51;;;;;;;2.10;1.00;;;;;;;;;;6237177;28;20304;-75
2023/04/30 12:44:17;;;;;;;3.08;1.10;;;;;;;;;;6219246;28;20288;-74
2023/04/30 12:47:25;;;;;;;1.25;1.00;;;;;;;;;;6235352;28;20317;-74
2023/04/30 12:50:31;;;;;;;1.08;1.08;;;;;;;;;;6236266;28;20300;-74
2023/04/30 12:53:45;;;;;;;1.95;1.20;;;;;;;;;;6236228;28;20293;-75
2023/04/30 12:57:01;;;;;;;4.88;1.40;;;;;;;;;;6219195;28;20312;-74
2023/04/30 13:00:08;;;;;;;1.95;1.20;;;;;;;;;;6236440;28;20300;-75
2023/04/30 13:03:14;;;;;;;1.02;1.00;;;;;;;;;;6202995;28;20294;-74
2023/04/30 13:06:21;;;;;;;2.97;0.80;;;;;;;;;;6187870;28;20306;-75
2023/04/30 13:09:27;;;;;;;0.95;0.90;;;;;;;;;;6187720;28;20290;-75
2023/04/30 13:12:34;;;;;;;1.70;1.00;;;;;;;;;;6187915;28;20302;-74
2023/04/30 13:15:39;;;;;;;5.38;1.00;;;;;;;;;;6187682;28;20392;-74
2023/04/30 13:18:45;;;;;;;1.55;0.98;;;;;;;;;;6187259;28;20302;-75
2023/04/30 13:21:50;;;;;;;1.25;1.00;;;;;;;;;;6188116;28;20310;-74
2023/04/30 13:24:56;;;;;;;1.05;0.98;;;;;;;;;;6186869;28;20601;-75
2023/04/30 13:28:03;;;;;;;1.05;1.05;;;;;;;;;;6188106;28;20289;-74
2023/04/30 13:31:08;;;;;;;1.05;1.00;;;;;;;;;;6187512;28;20302;-75
2023/04/30 13:34:14;;;;;;;8.63;1.10;;;;;;;;;;6188061;28;20293;-75
2023/04/30 13:37:19;;;;;;;0.88;0.80;;;;;;;;;;6189484;28;20294;-74
2023/04/30 13:40:25;;;;;;;1.65;1.10;;;;;;;;;;6189724;28;20310;-74
2023/04/30 13:43:31;;;;;;;1.10;1.10;;;;;;;;;;6189693;28;20479;-74
2023/04/30 13:46:36;;;;;;;2.17;1.13;;;;;;;;;;6188649;28;20289;-74
2023/04/30 13:49:42;;;;;;;1.02;1.02;;;;;;;;;;6187530;28;20309;-75
2023/04/30 13:52:47;;;;;;;1.15;1.15;;;;;;;;;;6187039;28;20318;-74
2023/04/30 13:55:52;;;;;;;2.53;1.13;;;;;;;;;;6201837;28;20303;-75
2023/04/30 13:58:59;;;;;;;1.00;1.00;;;;;;;;;;6201976;28;20297;-74
2023/04/30 14:02:04;;;;;;;2.83;1.00;;;;;;;;;;6200350;28;20296;-75
2023/04/30 14:05:10;;;;;;;2.90;0.90;;;;;;;;;;6235473;28;20303;-75
2023/04/30 14:08:15;;;;;;;1.00;1.00;;;;;;;;;;6235910;28;20277;-75
2023/04/30 14:11:21;;;;;;;0.80;0.80;;;;;;;;;;6234981;28;20292;-75
2023/04/30 14:14:28;;;;;;;0.80;0.80;;;;;;;;;;6235082;28;20300;-74
2023/04/30 14:17:33;;;;;;;2.65;0.90;;;;;;;;;;6234309;28;20292;-74
2023/04/30 14:20:39;;;;;;;0.70;0.70;;;;;;;;;;6235174;28;20304;-74
2023/04/30 14:23:45;;;;;;;2.10;0.70;;;;;;;;;;6235430;28;20570;-74
2023/04/30 14:26:53;;;;;;;0.80;0.80;;;;;;;;;;6235758;28;20301;-75
2023/04/30 14:29:59;;;;;;;2.03;0.90;;;;;;;;;;6235076;28;20293;-74
2023/04/30 14:33:05;;;;;;;0.90;0.90;;;;;;;;;;6235556;28;20568;-74
2023/04/30 14:36:12;;;;;;;0.88;0.88;;;;;;;;;;6233812;28;20299;-74
2023/04/30 14:39:18;;;;;;;1.38;1.08;;;;;;;;;;6234904;28;20288;-74
2023/04/30 14:42:23;;;;;;;1.13;1.00;;;;;;;;;;6235319;28;20288;-74
2023/04/30 14:45:30;;;;;;;1.00;1.00;;;;;;;;;;6249611;28;20304;-74
2023/04/30 14:48:35;;;;;;;1.85;1.00;;;;;;;;;;6233548;28;20432;-74
2023/04/30 14:51:42;;;;;;;0.90;0.90;;;;;;;;;;6234569;28;20308;-75
2023/04/30 14:54:47;;;;;;;3.75;1.13;;;;;;;;;;6234038;28;20301;-74
2023/04/30 14:57:53;;;;;;;1.85;0.95;;;;;;;;;;6235026;28;20303;-74
2023/04/30 15:01:00;;;;;;;1.00;1.00;;;;;;;;;;6232676;28;20311;-74
2023/04/30 15:04:05;;;;;;;0.80;0.80;;;;;;;;;;6233558;28;20284;-75
2023/04/30 15:07:11;;;;;;;0.70;0.70;;;;;;;;;;6239046;28;20291;-74
2023/04/30 15:10:17;;;;;;;0.60;0.60;;;;;;;;;;6221145;28;20296;-74
2023/04/30 15:13:22;;;;;;;0.82;0.80;;;;;;;;;;6239129;28;20304;-74
2023/04/30 15:16:29;;;;;;;1.00;1.00;;;;;;;;;;6238980;28;20301;-74
2023/04/30 15:19:34;;;;;;;2.53;0.90;;;;;;;;;;6238231;28;20292;-74
2023/04/30 15:22:39;;;;;;;0.95;0.95;;;;;;;;;;6239565;28;20296;-75
2023/04/30 15:25:44;;;;;;;1.65;1.00;;;;;;;;;;6238655;28;20304;-74
2023/04/30 15:28:49;;;;;;;0.80;0.80;;;;;;;;;;6238389;28;20617;-74
2023/04/30 15:31:58;;;;;;;1.75;0.77;;;;;;;;;;6238890;28;20483;-74
2023/04/30 15:35:03;;;;;;;2.88;1.00;;;;;;;;;;6237594;28;20301;-76
2023/04/30 15:38:09;;;;;;;0.95;0.95;;;;;;;;;;6238242;28;20268;-75
2023/04/30 15:41:14;;;;;;;0.70;0.70;;;;;;;;;;6237954;28;20488;-74
2023/04/30 15:44:19;;;;;;;1.40;0.98;;;;;;;;;;6238771;28;20292;-75
2023/04/30 15:47:26;;;;;;;1.23;0.90;;;;;;;;;;6238569;28;20470;-74
2023/04/30 15:50:31;;;;;;;0.80;0.80;;;;;;;;;;6237525;28;20289;-75
2023/04/30 15:53:36;;;;;;;2.78;0.90;;;;;;;;;;6237942;28;20296;-75
2023/04/30 15:56:41;;;;;;;1.55;0.85;;;;;;;;;;6238463;28;20304;-75
2023/04/30 15:59:47;;;;;;;0.70;0.70;;;;;;;;;;6236242;28;20292;-74
2023/04/30 16:02:53;;;;;;;1.30;1.10;;;;;;;;;;6238090;28;20296;-74
2023/04/30 16:05:59;;;;;;;4.00;0.90;;;;;;;;;;6238003;28;20293;-75
2023/04/30 16:09:07;;;;;;;0.80;0.80;;;;;;;;;;6237705;28;20297;-74
2023/04/30 16:12:13;;;;;;;0.80;0.80;;;;;;;;;;6237766;28;20292;-74
2023/04/30 16:15:19;;;;;;;10.15;1.40;;;;;;;;;;6237238;28;20292;-74
2023/04/30 16:18:26;;;;;;;1.00;1.00;;;;;;;;;;6238063;28;20292;-75
2023/04/30 16:21:31;;;;;;;3.92;2.38;;;;;;;;;;6237112;28;20292;-74
2023/04/30 16:24:39;;;;;;;2.60;2.50;;;;;;;;;;6236821;28;20300;-76
2023/04/30 16:27:45;;;;;;;2.35;1.45;;;;;;;;;;6237476;28;20304;-74
2023/04/30 16:30:50;;;;;;;9.02;1.80;;;;;;;;;;6219697;28;20309;-74
2023/04/30 16:33:57;;;;;;;1.02;1.02;;;;;;;;;;6237184;28;20300;-74
2023/04/30 16:37:02;;;;;;;3.60;1.20;;;;;;;;;;6237585;28;20596;-75
2023/04/30 16:40:08;;;;;;;1.10;1.10;;;;;;;;;;6237025;28;20296;-75
2023/04/30 16:43:13;;;;;;;2.22;1.42;;;;;;;;;;6236803;28;20300;-74
2023/04/30 16:46:18;;;;;;;1.45;1.05;;;;;;;;;;6236669;28;20321;-74
2023/04/30 16:49:25;;;;;;;1.15;1.15;;;;;;;;;;6236954;28;20288;-74
2023/04/30 16:52:32;;;;;;;3.03;1.08;;;;;;;;;;6237151;28;20296;-74
2023/04/30 16:55:37;;;;;;;0.80;0.80;;;;;;;;;;6236496;28;20305;-74
2023/04/30 16:58:42;;;;;;;0.85;0.85;;;;;;;;;;6236567;28;20296;-74
2023/04/30 17:01:47;;;;;;;1.95;1.35;;;;;;;;;;6237121;28;20300;-74
2023/04/30 17:04:54;;;;;;;1.40;1.00;;;;;;;;;;6236584;28;20292;-75
2023/04/30 17:07:59;;;;;;;4.13;1.08;;;;;;;;;;6238324;28;20292;-74
2023/04/30 17:11:05;;;;;;;1.30;1.30;;;;;;;;;;6236178;28;20292;-75
2023/04/30 17:14:14;;;;;;;1.35;1.30;;;;;;;;;;6236818;28;20300;-74
2023/04/30 17:17:19;;;;;;;0.90;0.90;;;;;;;;;;6237033;28;20460;-74
2023/04/30 17:20:26;;;;;;;5.57;1.00;;;;;;;;;;6236906;28;20312;-75
2023/04/30 17:23:31;;;;;;;1.00;1.00;;;;;;;;;;6219225;28;20292;-75
2023/04/30 17:26:37;;;;;;;1.00;1.00;;;;;;;;;;6236057;28;20292;-74
2023/04/30 17:29:42;;;;;;;1.42;1.42;;;;;;;;;;6235373;28;20296;-75
2023/04/30 17:32:48;;;;;;;1.02;1.02;;;;;;;;;;6219435;28;20300;-75
2023/04/30 17:35:55;;;;;;;3.72;1.10;;;;;;;;;;6236824;28;20476;-74
2023/04/30 17:39:04;;;;;;;1.27;1.27;;;;;;;;;;6234827;28;20312;-74
2023/04/30 17:42:09;;;;;;;1.25;1.25;;;;;;;;;;6236259;28;20574;-74
2023/04/30 17:45:14;;;;;;;1.08;1.08;;;;;;;;;;6236068;28;20305;-75
2023/04/30 17:48:26;;;;;;;1.40;1.30;;;;;;;;;;6236590;28;20296;-75
2023/04/30 17:51:32;;;;;;;1.30;1.30;;;;;;;;;;6234399;28;20347;-74
2023/04/30 17:54:37;;;;;;;1.20;1.20;;;;;;;;;;6235870;28;20299;-75
2023/04/30 17:57:43;;;;;;;1.17;1.08;;;;;;;;;;6235028;28;20295;-75
2023/04/30 18:00:48;;;;;;;1.10;1.10;;;;;;;;;;6235692;28;20300;-77
2023/04/30 18:03:54;;;;;;;2.95;0.90;;;;;;;;;;6233826;28;20296;-75
2023/04/30 18:07:00;;;;;;;2.25;1.60;;;;;;;;;;6235363;28;20304;-75
2023/04/30 18:10:07;;;;;;;2.20;2.10;;;;;;;;;;6235542;28;20297;-75
2023/04/30 18:13:12;;;;;;;4.10;3.80;;;;;;;;;;6236217;28;20292;-74
2023/04/30 18:16:18;;;;;;;5.97;3.25;;;;;;;;;;6225390;28;20616;-74
2023/04/30 18:19:24;;;;;;;3.65;2.58;;;;;;;;;;6233903;28;20292;-76
2023/04/30 18:22:30;;;;;;;2.50;2.10;;;;;;;;;;6236014;28;20621;-75
2023/04/30 18:25:37;;;;;;;2.10;2.00;;;;;;;;;;6235325;28;20451;-75
2023/04/30 18:28:42;;;;;;;3.42;2.85;;;;;;;;;;6250343;28;20297;-75
2023/04/30 18:31:48;;;;;;;2.38;2.15;;;;;;;;;;6218508;28;20300;-75
2023/04/30 18:34:53;;;;;;;2.28;2.28;;;;;;;;;;6235539;28;20312;-74
2023/04/30 18:38:00;;;;;;;1.67;1.65;;;;;;;;;;6251595;28;20288;-75
2023/04/30 18:41:09;;;;;;;3.70;2.13;;;;;;;;;;6235957;28;20596;-76